Cuffley, United Kingdom
Current Conditions -  °F | °C
As of 5:50 PM on Sunday 21 Dec 2014 (Local Time) from EGGW Reporting Station
Broken Clouds Broken Clouds  
Wind Chill: 50°   Ceiling: 1600
Heat Index: 50°   Visibility: 6mi
Dew Point: 46°   Wind: 22mph
Humidity: 87%   Direction: 230°SW
Pressure: 30.15"   Gusts: 33mph
Location:  51.71°N, 0.11°W
Report Text: EGGW 211750Z 23019G29KT 9999 BKN016 10/08 Q1021
Loading
Personal Weather Stations






























Interactive Weather Map New forecast layout! Learn more

10-Day Weather Forecast

Advertisements
Track Severe Weather on mobile